sensor_id;sensor_type;location;lat;lon;timestamp;pressure;altitude;pressure_sealevel;temperature;humidity
61128;BME280;47013;42.664;23.242;2022-12-18T00:00:24;94764.69;;;7.05;100.00
61128;BME280;47013;42.664;23.242;2022-12-18T00:02:49;94762.97;;;6.93;100.00
61128;BME280;47013;42.664;23.242;2022-12-18T00:05:14;94767.09;;;6.87;100.00
61128;BME280;47013;42.664;23.242;2022-12-18T00:07:40;94769.78;;;6.87;100.00
61128;BME280;47013;42.664;23.242;2022-12-18T00:10:05;94765.50;;;6.83;100.00
61128;BME280;47013;42.664;23.242;2022-12-18T00:12:30;94772.31;;;6.76;100.00
61128;BME280;47013;42.664;23.242;2022-12-18T00:14:56;94776.16;;;6.75;100.00
61128;BME280;47013;42.664;23.242;2022-12-18T00:17:21;94771.91;;;6.74;100.00
61128;BME280;47013;42.664;23.242;2022-12-18T00:19:46;94777.66;;;6.73;100.00
61128;BME280;47013;42.664;23.242;2022-12-18T00:22:11;94788.00;;;6.71;100.00
61128;BME280;47013;42.664;23.242;2022-12-18T00:24:37;94791.25;;;6.57;100.00
61128;BME280;47013;42.664;23.242;2022-12-18T00:27:02;94791.56;;;6.52;100.00
61128;BME280;47013;42.664;23.242;2022-12-18T00:29:27;94790.47;;;6.57;100.00
61128;BME280;47013;42.664;23.242;2022-12-18T00:31:53;94800.06;;;6.54;100.00
61128;BME280;47013;42.664;23.242;2022-12-18T00:34:18;94795.50;;;6.58;100.00
61128;BME280;47013;42.664;23.242;2022-12-18T00:36:43;94796.28;;;6.59;100.00
61128;BME280;47013;42.664;23.242;2022-12-18T00:39:09;94795.06;;;6.56;100.00
61128;BME280;47013;42.664;23.242;2022-12-18T00:41:35;94800.63;;;6.44;100.00
61128;BME280;47013;42.664;23.242;2022-12-18T00:44:19;94797.53;;;6.42;100.00
61128;BME280;47013;42.664;23.242;2022-12-18T00:46:45;94807.00;;;6.36;100.00
61128;BME280;47013;42.664;23.242;2022-12-18T00:49:11;94812.41;;;6.36;100.00
61128;BME280;47013;42.664;23.242;2022-12-18T00:51:36;94810.44;;;6.33;100.00
61128;BME280;47013;42.664;23.242;2022-12-18T00:54:01;94814.56;;;6.27;100.00
61128;BME280;47013;42.664;23.242;2022-12-18T00:56:27;94809.09;;;6.23;100.00
61128;BME280;47013;42.664;23.242;2022-12-18T00:58:52;94818.72;;;6.24;100.00
61128;BME280;47013;42.664;23.242;2022-12-18T01:01:17;94818.38;;;6.26;100.00
61128;BME280;47013;42.664;23.242;2022-12-18T01:03:42;94818.31;;;6.22;100.00
61128;BME280;47013;42.664;23.242;2022-12-18T01:06:10;94816.47;;;6.26;100.00
61128;BME280;47013;42.664;23.242;2022-12-18T01:08:36;94822.63;;;6.27;100.00
61128;BME280;47013;42.664;23.242;2022-12-18T01:11:09;94823.25;;;6.20;100.00
61128;BME280;47013;42.664;23.242;2022-12-18T01:13:35;94827.38;;;6.14;100.00
61128;BME280;47013;42.664;23.242;2022-12-18T01:16:00;94828.16;;;6.14;100.00
61128;BME280;47013;42.664;23.242;2022-12-18T01:18:25;94823.91;;;6.13;100.00
61128;BME280;47013;42.664;23.242;2022-12-18T01:20:50;94831.53;;;6.11;100.00
61128;BME280;47013;42.664;23.242;2022-12-18T01:23:16;94837.09;;;5.99;100.00
61128;BME280;47013;42.664;23.242;2022-12-18T01:25:41;94836.75;;;6.01;100.00
61128;BME280;47013;42.664;23.242;2022-12-18T01:28:06;94832.75;;;5.95;100.00
61128;BME280;47013;42.664;23.242;2022-12-18T01:30:31;94835.09;;;5.96;100.00
61128;BME280;47013;42.664;23.242;2022-12-18T01:32:57;94832.41;;;5.96;100.00
61128;BME280;47013;42.664;23.242;2022-12-18T01:35:22;94834.41;;;5.83;100.00
61128;BME280;47013;42.664;23.242;2022-12-18T01:37:47;94842.34;;;5.76;100.00
61128;BME280;47013;42.664;23.242;2022-12-18T01:40:13;94835.00;;;5.73;100.00
61128;BME280;47013;42.664;23.242;2022-12-18T01:42:38;94843.84;;;5.74;100.00
61128;BME280;47013;42.664;23.242;2022-12-18T01:45:05;94851.03;;;5.70;100.00
61128;BME280;47013;42.664;23.242;2022-12-18T01:49:57;94857.19;;;5.70;100.00
61128;BME280;47013;42.664;23.242;2022-12-18T01:52:23;94848.00;;;5.71;100.00
61128;BME280;47013;42.664;23.242;2022-12-18T01:54:50;94856.34;;;5.66;100.00
61128;BME280;47013;42.664;23.242;2022-12-18T01:57:16;94859.66;;;5.59;100.00
61128;BME280;47013;42.664;23.242;2022-12-18T01:59:41;94854.38;;;5.63;100.00
61128;BME280;47013;42.664;23.242;2022-12-18T02:02:07;94846.13;;;5.56;100.00
61128;BME280;47013;42.664;23.242;2022-12-18T02:04:33;94852.47;;;5.63;100.00
61128;BME280;47013;42.664;23.242;2022-12-18T02:07:03;94854.44;;;5.67;100.00
61128;BME280;47013;42.664;23.242;2022-12-18T02:09:36;94860.25;;;5.69;100.00
61128;BME280;47013;42.664;23.242;2022-12-18T02:27:34;94880.38;;;5.59;100.00
61128;BME280;47013;42.664;23.242;2022-12-18T02:30:01;94874.22;;;5.58;99.84
61128;BME280;47013;42.664;23.242;2022-12-18T02:32:30;94875.72;;;5.56;99.80
61128;BME280;47013;42.664;23.242;2022-12-18T02:34:56;94875.38;;;5.57;100.00
61128;BME280;47013;42.664;23.242;2022-12-18T02:37:23;94886.16;;;5.42;99.79
61128;BME280;47013;42.664;23.242;2022-12-18T02:39:50;94885.38;;;5.41;99.02
61128;BME280;47013;42.664;23.242;2022-12-18T02:42:17;94882.84;;;5.32;99.47
61128;BME280;47013;42.664;23.242;2022-12-18T02:44:48;94888.00;;;5.38;99.55
61128;BME280;47013;42.664;23.242;2022-12-18T02:47:15;94888.06;;;5.41;100.00
61128;BME280;47013;42.664;23.242;2022-12-18T02:57:26;94888.84;;;5.42;99.30
61128;BME280;47013;42.664;23.242;2022-12-18T02:59:59;94894.28;;;5.45;99.49
61128;BME280;47013;42.664;23.242;2022-12-18T03:02:35;94903.50;;;5.44;99.37
61128;BME280;47013;42.664;23.242;2022-12-18T03:07:42;94903.09;;;5.26;98.56
61128;BME280;47013;42.664;23.242;2022-12-18T03:10:11;94914.34;;;5.16;98.61
61128;BME280;47013;42.664;23.242;2022-12-18T03:12:40;94915.13;;;5.01;99.73
61128;BME280;47013;42.664;23.242;2022-12-18T03:15:16;94918.94;;;5.00;100.00
61128;BME280;47013;42.664;23.242;2022-12-18T03:17:45;94921.69;;;4.88;99.17
61128;BME280;47013;42.664;23.242;2022-12-18T03:20:15;94918.66;;;4.89;99.67
61128;BME280;47013;42.664;23.242;2022-12-18T03:22:42;94919.28;;;4.83;99.79
61128;BME280;47013;42.664;23.242;2022-12-18T03:25:09;94919.78;;;4.88;100.00
61128;BME280;47013;42.664;23.242;2022-12-18T03:27:36;94920.00;;;4.95;100.00
61128;BME280;47013;42.664;23.242;2022-12-18T03:32:33;94928.06;;;4.95;99.63
61128;BME280;47013;42.664;23.242;2022-12-18T03:35:01;94930.28;;;4.93;98.48
61128;BME280;47013;42.664;23.242;2022-12-18T03:37:29;94932.16;;;4.77;98.28
61128;BME280;47013;42.664;23.242;2022-12-18T03:39:54;94934.69;;;4.70;99.15
61128;BME280;47013;42.664;23.242;2022-12-18T03:42:26;94940.47;;;4.72;99.51
61128;BME280;47013;42.664;23.242;2022-12-18T03:45:06;94942.72;;;4.70;100.00
61128;BME280;47013;42.664;23.242;2022-12-18T03:47:39;94951.28;;;4.60;99.67
61128;BME280;47013;42.664;23.242;2022-12-18T03:50:19;94954.31;;;4.58;100.00
61128;BME280;47013;42.664;23.242;2022-12-18T03:55:18;94962.25;;;4.55;100.00
61128;BME280;47013;42.664;23.242;2022-12-18T03:57:44;94951.75;;;4.50;100.00
61128;BME280;47013;42.664;23.242;2022-12-18T04:00:11;94955.94;;;4.35;100.00
61128;BME280;47013;42.664;23.242;2022-12-18T04:02:38;94963.09;;;4.43;100.00
61128;BME280;47013;42.664;23.242;2022-12-18T04:05:05;94960.72;;;4.41;100.00
61128;BME280;47013;42.664;23.242;2022-12-18T04:07:32;94964.66;;;4.44;100.00
61128;BME280;47013;42.664;23.242;2022-12-18T04:09:58;94970.22;;;4.51;99.75
61128;BME280;47013;42.664;23.242;2022-12-18T04:12:25;94970.69;;;4.41;99.02
61128;BME280;47013;42.664;23.242;2022-12-18T04:14:51;94976.41;;;4.39;100.00
61128;BME280;47013;42.664;23.242;2022-12-18T04:17:16;94978.91;;;4.32;99.63
61128;BME280;47013;42.664;23.242;2022-12-18T04:19:42;94981.94;;;4.31;99.29
61128;BME280;47013;42.664;23.242;2022-12-18T04:22:08;94990.19;;;4.26;99.20
61128;BME280;47013;42.664;23.242;2022-12-18T04:24:34;94986.94;;;4.32;99.76
61128;BME280;47013;42.664;23.242;2022-12-18T04:26:59;94999.25;;;4.33;99.42
61128;BME280;47013;42.664;23.242;2022-12-18T04:29:24;95000.03;;;4.34;98.71
61128;BME280;47013;42.664;23.242;2022-12-18T04:31:49;94993.53;;;4.35;99.59
61128;BME280;47013;42.664;23.242;2022-12-18T04:34:15;95015.22;;;4.42;100.00
61128;BME280;47013;42.664;23.242;2022-12-18T04:36:40;95006.38;;;4.41;98.73
61128;BME280;47013;42.664;23.242;2022-12-18T04:39:05;95018.25;;;4.40;97.05
61128;BME280;47013;42.664;23.242;2022-12-18T04:41:30;95015.22;;;4.42;97.43
61128;BME280;47013;42.664;23.242;2022-12-18T04:43:56;95022.97;;;4.31;97.51
61128;BME280;47013;42.664;23.242;2022-12-18T04:46:21;95022.81;;;4.40;97.47
61128;BME280;47013;42.664;23.242;2022-12-18T04:48:46;95025.16;;;4.41;96.69
61128;BME280;47013;42.664;23.242;2022-12-18T04:51:12;95026.00;;;4.30;95.25
61128;BME280;47013;42.664;23.242;2022-12-18T04:53:37;95029.56;;;4.34;95.78
61128;BME280;47013;42.664;23.242;2022-12-18T04:56:05;95036.47;;;4.47;96.42
61128;BME280;47013;42.664;23.242;2022-12-18T04:58:31;95035.25;;;4.44;95.59
61128;BME280;47013;42.664;23.242;2022-12-18T05:00:56;95042.97;;;4.46;96.84
61128;BME280;47013;42.664;23.242;2022-12-18T05:03:22;95050.44;;;4.53;95.15
61128;BME280;47013;42.664;23.242;2022-12-18T05:05:50;95047.66;;;4.49;94.21
61128;BME280;47013;42.664;23.242;2022-12-18T05:08:16;95057.53;;;4.45;93.97
61128;BME280;47013;42.664;23.242;2022-12-18T05:10:41;95058.84;;;4.51;94.50
61128;BME280;47013;42.664;23.242;2022-12-18T05:13:06;95063.88;;;4.53;94.33
61128;BME280;47013;42.664;23.242;2022-12-18T05:15:32;95056.59;;;4.53;94.21
61128;BME280;47013;42.664;23.242;2022-12-18T05:17:57;95058.38;;;4.61;94.57
61128;BME280;47013;42.664;23.242;2022-12-18T05:20:23;95067.44;;;4.69;94.26
61128;BME280;47013;42.664;23.242;2022-12-18T05:22:48;95071.09;;;4.77;94.15
61128;BME280;47013;42.664;23.242;2022-12-18T05:25:14;95069.19;;;4.77;92.28
61128;BME280;47013;42.664;23.242;2022-12-18T05:27:39;95072.81;;;4.69;91.58
61128;BME280;47013;42.664;23.242;2022-12-18T05:30:04;95082.66;;;4.65;91.71
61128;BME280;47013;42.664;23.242;2022-12-18T05:32:30;95082.56;;;4.49;90.53
61128;BME280;47013;42.664;23.242;2022-12-18T05:34:55;95085.94;;;4.46;91.41
61128;BME280;47013;42.664;23.242;2022-12-18T05:37:22;95089.75;;;4.45;91.70
61128;BME280;47013;42.664;23.242;2022-12-18T05:39:47;95101.91;;;4.42;92.33
61128;BME280;47013;42.664;23.242;2022-12-18T05:42:12;95104.06;;;4.49;92.12
61128;BME280;47013;42.664;23.242;2022-12-18T05:44:37;95102.59;;;4.52;91.63
61128;BME280;47013;42.664;23.242;2022-12-18T05:47:03;95101.13;;;4.54;91.93
61128;BME280;47013;42.664;23.242;2022-12-18T05:49:29;95101.91;;;4.55;92.00
61128;BME280;47013;42.664;23.242;2022-12-18T05:51:54;95112.22;;;4.53;91.91
61128;BME280;47013;42.664;23.242;2022-12-18T05:54:19;95117.81;;;4.48;91.64
61128;BME280;47013;42.664;23.242;2022-12-18T05:56:45;95110.22;;;4.50;91.58
61128;BME280;47013;42.664;23.242;2022-12-18T05:59:10;95109.88;;;4.39;90.20
61128;BME280;47013;42.664;23.242;2022-12-18T06:01:35;95113.47;;;4.43;91.33
61128;BME280;47013;42.664;23.242;2022-12-18T06:04:02;95120.72;;;4.42;91.40
61128;BME280;47013;42.664;23.242;2022-12-18T06:06:27;95124.31;;;4.34;90.53
61128;BME280;47013;42.664;23.242;2022-12-18T06:08:53;95125.53;;;4.25;90.67
61128;BME280;47013;42.664;23.242;2022-12-18T06:11:20;95135.41;;;4.21;91.63
61128;BME280;47013;42.664;23.242;2022-12-18T06:13:45;95133.59;;;4.25;91.90
61128;BME280;47013;42.664;23.242;2022-12-18T06:16:11;95143.00;;;4.19;90.73
61128;BME280;47013;42.664;23.242;2022-12-18T06:18:36;95141.19;;;4.10;91.07
61128;BME280;47013;42.664;23.242;2022-12-18T06:21:02;95144.22;;;4.09;91.88
61128;BME280;47013;42.664;23.242;2022-12-18T06:23:27;95144.56;;;4.07;91.58
61128;BME280;47013;42.664;23.242;2022-12-18T06:25:53;95147.56;;;4.06;91.54
61128;BME280;47013;42.664;23.242;2022-12-18T06:28:18;95133.56;;;3.88;92.90
61128;BME280;47013;42.664;23.242;2022-12-18T06:30:44;95140.28;;;3.94;92.91
61128;BME280;47013;42.664;23.242;2022-12-18T06:33:10;95149.56;;;3.97;92.14
61128;BME280;47013;42.664;23.242;2022-12-18T06:35:35;95151.56;;;4.00;92.12
61128;BME280;47013;42.664;23.242;2022-12-18T06:38:01;95164.66;;;4.01;91.85
61128;BME280;47013;42.664;23.242;2022-12-18T06:40:26;95158.50;;;4.01;90.95
61128;BME280;47013;42.664;23.242;2022-12-18T06:42:51;95159.41;;;3.93;91.48
61128;BME280;47013;42.664;23.242;2022-12-18T06:45:16;95165.66;;;3.97;91.93
61128;BME280;47013;42.664;23.242;2022-12-18T06:47:42;95174.59;;;4.01;91.47
61128;BME280;47013;42.664;23.242;2022-12-18T06:50:07;95173.38;;;3.98;91.61
61128;BME280;47013;42.664;23.242;2022-12-18T06:52:32;95180.22;;;4.08;91.72
61128;BME280;47013;42.664;23.242;2022-12-18T06:54:58;95183.34;;;4.10;92.26
61128;BME280;47013;42.664;23.242;2022-12-18T06:57:23;95185.81;;;4.15;92.96
61128;BME280;47013;42.664;23.242;2022-12-18T06:59:49;95181.13;;;4.24;92.41
61128;BME280;47013;42.664;23.242;2022-12-18T07:02:14;95180.00;;;4.25;91.28
61128;BME280;47013;42.664;23.242;2022-12-18T07:04:39;95188.41;;;4.24;90.42
61128;BME280;47013;42.664;23.242;2022-12-18T07:07:04;95184.41;;;4.30;90.54
61128;BME280;47013;42.664;23.242;2022-12-18T07:09:30;95190.75;;;4.37;90.74
61128;BME280;47013;42.664;23.242;2022-12-18T07:11:55;95195.91;;;4.42;89.85
61128;BME280;47013;42.664;23.242;2022-12-18T07:14:20;95197.94;;;4.33;89.28
61128;BME280;47013;42.664;23.242;2022-12-18T07:16:45;95194.34;;;4.41;90.12
61128;BME280;47013;42.664;23.242;2022-12-18T07:19:11;95198.38;;;4.48;88.22
61128;BME280;47013;42.664;23.242;2022-12-18T07:21:36;95193.69;;;4.44;87.85
61128;BME280;47013;42.664;23.242;2022-12-18T07:24:01;95194.25;;;4.50;87.14
61128;BME280;47013;42.664;23.242;2022-12-18T07:26:26;95200.41;;;4.51;87.46
61128;BME280;47013;42.664;23.242;2022-12-18T07:28:54;95198.59;;;4.55;87.62
61128;BME280;47013;42.664;23.242;2022-12-18T07:31:20;95203.50;;;4.40;86.35
61128;BME280;47013;42.664;23.242;2022-12-18T07:33:46;95205.56;;;4.43;87.01
61128;BME280;47013;42.664;23.242;2022-12-18T07:36:12;95207.09;;;4.32;85.97
61128;BME280;47013;42.664;23.242;2022-12-18T07:38:37;95213.78;;;4.26;86.80
61128;BME280;47013;42.664;23.242;2022-12-18T07:41:03;95222.97;;;4.25;86.77
61128;BME280;47013;42.664;23.242;2022-12-18T07:43:29;95219.06;;;4.23;85.99
61128;BME280;47013;42.664;23.242;2022-12-18T07:45:54;95214.25;;;4.28;86.65
61128;BME280;47013;42.664;23.242;2022-12-18T07:48:19;95219.31;;;4.30;86.59
61128;BME280;47013;42.664;23.242;2022-12-18T07:50:45;95213.81;;;4.38;86.46
61128;BME280;47013;42.664;23.242;2022-12-18T07:53:10;95221.97;;;4.42;86.33
61128;BME280;47013;42.664;23.242;2022-12-18T07:55:35;95220.41;;;4.41;84.91
61128;BME280;47013;42.664;23.242;2022-12-18T07:58:01;95229.94;;;4.51;85.22
61128;BME280;47013;42.664;23.242;2022-12-18T08:00:27;95228.47;;;4.53;86.55
61128;BME280;47013;42.664;23.242;2022-12-18T08:02:52;95235.41;;;4.54;86.14
61128;BME280;47013;42.664;23.242;2022-12-18T08:05:18;95237.47;;;4.57;85.64
61128;BME280;47013;42.664;23.242;2022-12-18T08:07:43;95238.34;;;4.61;85.91
61128;BME280;47013;42.664;23.242;2022-12-18T08:10:09;95240.47;;;4.68;86.57
61128;BME280;47013;42.664;23.242;2022-12-18T08:12:34;95245.03;;;4.67;87.92
61128;BME280;47013;42.664;23.242;2022-12-18T08:14:59;95248.75;;;4.63;87.15
61128;BME280;47013;42.664;23.242;2022-12-18T08:17:24;95250.56;;;4.71;87.54
61128;BME280;47013;42.664;23.242;2022-12-18T08:19:50;95260.19;;;4.72;86.81
61128;BME280;47013;42.664;23.242;2022-12-18T08:22:15;95266.53;;;4.67;85.99
61128;BME280;47013;42.664;23.242;2022-12-18T08:24:40;95265.09;;;4.70;86.24
61128;BME280;47013;42.664;23.242;2022-12-18T08:27:05;95262.53;;;4.61;85.71
61128;BME280;47013;42.664;23.242;2022-12-18T08:29:31;95265.88;;;4.58;85.81
61128;BME280;47013;42.664;23.242;2022-12-18T08:31:57;95268.56;;;4.58;86.22
61128;BME280;47013;42.664;23.242;2022-12-18T08:34:22;95269.78;;;4.61;86.61
61128;BME280;47013;42.664;23.242;2022-12-18T08:36:47;95264.75;;;4.59;87.30
61128;BME280;47013;42.664;23.242;2022-12-18T08:39:12;95269.09;;;4.52;87.60
61128;BME280;47013;42.664;23.242;2022-12-18T08:41:38;95271.59;;;4.57;87.70
61128;BME280;47013;42.664;23.242;2022-12-18T08:44:03;95276.97;;;4.57;88.34
61128;BME280;47013;42.664;23.242;2022-12-18T08:46:47;95272.59;;;4.64;88.00
61128;BME280;47013;42.664;23.242;2022-12-18T08:49:12;95280.75;;;4.68;87.93
61128;BME280;47013;42.664;23.242;2022-12-18T08:51:38;95275.38;;;4.68;87.29
61128;BME280;47013;42.664;23.242;2022-12-18T08:54:03;95285.25;;;4.64;86.49
61128;BME280;47013;42.664;23.242;2022-12-18T08:56:29;95285.66;;;4.54;86.40
61128;BME280;47013;42.664;23.242;2022-12-18T08:58:55;95290.03;;;4.46;86.50
61128;BME280;47013;42.664;23.242;2022-12-18T09:01:20;95272.47;;;4.49;87.00
61128;BME280;47013;42.664;23.242;2022-12-18T09:03:46;95273.59;;;4.48;87.63
61128;BME280;47013;42.664;23.242;2022-12-18T09:06:13;95277.28;;;4.43;87.39
61128;BME280;47013;42.664;23.242;2022-12-18T09:08:38;95280.16;;;4.38;87.00
61128;BME280;47013;42.664;23.242;2022-12-18T09:11:03;95280.03;;;4.34;86.95
61128;BME280;47013;42.664;23.242;2022-12-18T09:13:29;95271.09;;;4.30;87.26
61128;BME280;47013;42.664;23.242;2022-12-18T09:15:54;95277.25;;;4.31;87.36
61128;BME280;47013;42.664;23.242;2022-12-18T09:18:21;95273.97;;;4.25;87.80
61128;BME280;47013;42.664;23.242;2022-12-18T09:20:46;95273.59;;;4.14;87.93
61128;BME280;47013;42.664;23.242;2022-12-18T09:23:12;95272.03;;;4.13;87.73
61128;BME280;47013;42.664;23.242;2022-12-18T09:25:37;95275.97;;;4.16;88.39
61128;BME280;47013;42.664;23.242;2022-12-18T09:28:04;95284.16;;;4.20;87.96
61128;BME280;47013;42.664;23.242;2022-12-18T09:30:29;95274.88;;;4.17;86.74
61128;BME280;47013;42.664;23.242;2022-12-18T09:32:54;95275.16;;;4.15;87.50
61128;BME280;47013;42.664;23.242;2022-12-18T09:35:20;95277.41;;;4.13;87.08
61128;BME280;47013;42.664;23.242;2022-12-18T09:37:45;95279.56;;;4.20;87.89
61128;BME280;47013;42.664;23.242;2022-12-18T09:40:14;95282.09;;;4.17;87.65
61128;BME280;47013;42.664;23.242;2022-12-18T09:42:40;95284.03;;;4.28;87.70
61128;BME280;47013;42.664;23.242;2022-12-18T09:45:11;95292.56;;;4.30;86.38
61128;BME280;47013;42.664;23.242;2022-12-18T09:47:39;95288.22;;;4.38;85.94
61128;BME280;47013;42.664;23.242;2022-12-18T09:50:06;95289.34;;;4.37;86.42
61128;BME280;47013;42.664;23.242;2022-12-18T09:52:42;95274.44;;;4.39;86.17
61128;BME280;47013;42.664;23.242;2022-12-18T09:55:11;95281.31;;;4.49;85.87
61128;BME280;47013;42.664;23.242;2022-12-18T09:57:43;95277.59;;;4.54;85.71
61128;BME280;47013;42.664;23.242;2022-12-18T10:00:15;95260.72;;;4.65;85.43
61128;BME280;47013;42.664;23.242;2022-12-18T10:02:41;95266.69;;;4.71;83.28
61128;BME280;47013;42.664;23.242;2022-12-18T10:05:07;95269.78;;;4.61;83.06
61128;BME280;47013;42.664;23.242;2022-12-18T10:07:43;95274.28;;;4.57;82.25
61128;BME280;47013;42.664;23.242;2022-12-18T10:12:52;95262.94;;;4.51;83.00
61128;BME280;47013;42.664;23.242;2022-12-18T10:15:24;95271.69;;;4.48;81.26
61128;BME280;47013;42.664;23.242;2022-12-18T10:17:56;95271.56;;;4.44;81.88
61128;BME280;47013;42.664;23.242;2022-12-18T10:20:32;95276.81;;;4.53;82.45
61128;BME280;47013;42.664;23.242;2022-12-18T10:28:00;95283.56;;;4.59;81.51
61128;BME280;47013;42.664;23.242;2022-12-18T10:30:32;95290.59;;;4.64;80.37
61128;BME280;47013;42.664;23.242;2022-12-18T10:33:00;95282.34;;;4.57;80.22
61128;BME280;47013;42.664;23.242;2022-12-18T10:35:26;95291.81;;;4.54;80.50
61128;BME280;47013;42.664;23.242;2022-12-18T10:40:47;95282.66;;;4.55;79.27
61128;BME280;47013;42.664;23.242;2022-12-18T10:43:14;95290.06;;;4.58;79.71
61128;BME280;47013;42.664;23.242;2022-12-18T10:45:40;95284.69;;;4.58;79.19
61128;BME280;47013;42.664;23.242;2022-12-18T10:48:17;95288.50;;;4.57;78.48
61128;BME280;47013;42.664;23.242;2022-12-18T10:50:42;95290.84;;;4.59;78.66
61128;BME280;47013;42.664;23.242;2022-12-18T10:53:13;95284.69;;;4.58;78.65
61128;BME280;47013;42.664;23.242;2022-12-18T10:55:44;95285.66;;;4.54;77.96
61128;BME280;47013;42.664;23.242;2022-12-18T11:00:38;95282.34;;;4.57;77.95
61128;BME280;47013;42.664;23.242;2022-12-18T11:03:07;95280.88;;;4.59;77.11
61128;BME280;47013;42.664;23.242;2022-12-18T11:05:49;95288.59;;;4.61;76.52
61128;BME280;47013;42.664;23.242;2022-12-18T11:08:25;95285.81;;;4.57;78.39
61128;BME280;47013;42.664;23.242;2022-12-18T11:10:51;95291.50;;;4.56;74.66
61128;BME280;47013;42.664;23.242;2022-12-18T11:13:20;95294.41;;;4.51;75.29
61128;BME280;47013;42.664;23.242;2022-12-18T11:15:45;95286.44;;;4.54;75.32
61128;BME280;47013;42.664;23.242;2022-12-18T11:18:18;95292.06;;;4.61;74.65
61128;BME280;47013;42.664;23.242;2022-12-18T11:20:50;95300.69;;;4.67;77.16
61128;BME280;47013;42.664;23.242;2022-12-18T11:23:16;95299.81;;;4.75;74.26
61128;BME280;47013;42.664;23.242;2022-12-18T11:25:50;95307.19;;;4.66;73.92
61128;BME280;47013;42.664;23.242;2022-12-18T11:33:35;95306.19;;;4.70;73.17
61128;BME280;47013;42.664;23.242;2022-12-18T11:36:03;95300.03;;;4.70;70.75
61128;BME280;47013;42.664;23.242;2022-12-18T11:38:32;95298.47;;;4.69;72.57
61128;BME280;47013;42.664;23.242;2022-12-18T11:43:29;95300.13;;;4.61;73.34
61128;BME280;47013;42.664;23.242;2022-12-18T11:46:07;95306.72;;;4.64;71.60
61128;BME280;47013;42.664;23.242;2022-12-18T11:48:41;95300.34;;;4.56;72.60
61128;BME280;47013;42.664;23.242;2022-12-18T11:51:13;95313.19;;;4.51;72.34
61128;BME280;47013;42.664;23.242;2022-12-18T11:53:39;95308.69;;;4.42;72.24
61128;BME280;47013;42.664;23.242;2022-12-18T12:06:45;95298.34;;;4.20;72.89
61128;BME280;47013;42.664;23.242;2022-12-18T12:09:17;95298.91;;;4.26;73.13
61128;BME280;47013;42.664;23.242;2022-12-18T12:12:30;95299.59;;;4.23;73.14
61128;BME280;47013;42.664;23.242;2022-12-18T12:20:12;95297.38;;;4.37;74.71
61128;BME280;47013;42.664;23.242;2022-12-18T12:22:22;95291.78;;;4.42;73.23
61128;BME280;47013;42.664;23.242;2022-12-18T12:27:24;95284.53;;;4.55;73.16
61128;BME280;47013;42.664;23.242;2022-12-18T12:40:19;95304.13;;;4.55;73.54
61128;BME280;47013;42.664;23.242;2022-12-18T12:42:51;95295.09;;;4.60;74.22
61128;BME280;47013;42.664;23.242;2022-12-18T12:46:11;95289.50;;;4.65;73.69
61128;BME280;47013;42.664;23.242;2022-12-18T12:48:40;95292.84;;;4.62;73.32
61128;BME280;47013;42.664;23.242;2022-12-18T12:51:08;95304.13;;;4.55;73.55
61128;BME280;47013;42.664;23.242;2022-12-18T12:53:36;95303.72;;;4.65;74.67
61128;BME280;47013;42.664;23.242;2022-12-18T12:56:03;95302.59;;;4.66;74.03
61128;BME280;47013;42.664;23.242;2022-12-18T13:01:17;95309.31;;;4.72;74.09
61128;BME280;47013;42.664;23.242;2022-12-18T13:03:53;95310.31;;;4.68;73.90
61128;BME280;47013;42.664;23.242;2022-12-18T13:08:59;95309.88;;;4.78;74.16
61128;BME280;47013;42.664;23.242;2022-12-18T13:11:32;95316.47;;;4.81;74.07
61128;BME280;47013;42.664;23.242;2022-12-18T13:14:51;95321.31;;;4.75;74.89
61128;BME280;47013;42.664;23.242;2022-12-18T13:17:24;95325.31;;;4.81;73.94
61128;BME280;47013;42.664;23.242;2022-12-18T13:20:14;95331.59;;;4.73;74.03
61128;BME280;47013;42.664;23.242;2022-12-18T13:22:40;95326.13;;;4.69;74.11
61128;BME280;47013;42.664;23.242;2022-12-18T13:28:00;95332.47;;;4.65;74.53
61128;BME280;47013;42.664;23.242;2022-12-18T13:38:22;95340.66;;;4.56;74.31
61128;BME280;47013;42.664;23.242;2022-12-18T13:43:36;95336.81;;;4.45;75.08
61128;BME280;47013;42.664;23.242;2022-12-18T13:48:49;95351.22;;;4.40;74.94
61128;BME280;47013;42.664;23.242;2022-12-18T13:51:16;95350.56;;;4.43;75.22
61128;BME280;47013;42.664;23.242;2022-12-18T13:53:43;95346.44;;;4.46;75.67
61128;BME280;47013;42.664;23.242;2022-12-18T13:56:09;95352.91;;;4.45;76.03
61128;BME280;47013;42.664;23.242;2022-12-18T13:58:39;95359.41;;;4.44;76.05
61128;BME280;47013;42.664;23.242;2022-12-18T14:01:10;95358.75;;;4.47;75.96
61128;BME280;47013;42.664;23.242;2022-12-18T14:03:40;95358.63;;;4.43;75.24
61128;BME280;47013;42.664;23.242;2022-12-18T14:06:06;95356.91;;;4.39;75.52
61128;BME280;47013;42.664;23.242;2022-12-18T14:08:34;95356.47;;;4.37;75.38
61128;BME280;47013;42.664;23.242;2022-12-18T14:11:01;95354.56;;;4.37;73.94
61128;BME280;47013;42.664;23.242;2022-12-18T14:13:29;95362.09;;;4.44;75.01
61128;BME280;47013;42.664;23.242;2022-12-18T14:15:55;95366.47;;;4.49;74.46
61128;BME280;47013;42.664;23.242;2022-12-18T14:19:03;95366.69;;;4.43;73.25
61128;BME280;47013;42.664;23.242;2022-12-18T14:21:26;95367.47;;;4.44;72.72
61128;BME280;47013;42.664;23.242;2022-12-18T14:26:35;95374.16;;;4.38;71.48
61128;BME280;47013;42.664;23.242;2022-12-18T14:29:14;95377.59;;;4.38;71.52
61128;BME280;47013;42.664;23.242;2022-12-18T14:31:42;95380.19;;;4.35;71.98
61128;BME280;47013;42.664;23.242;2022-12-18T14:34:08;95379.50;;;4.38;73.21
61128;BME280;47013;42.664;23.242;2022-12-18T14:36:39;95384.88;;;4.38;72.50
61128;BME280;47013;42.664;23.242;2022-12-18T14:39:04;95371.47;;;4.38;73.02
61128;BME280;47013;42.664;23.242;2022-12-18T14:41:30;95371.56;;;4.41;73.10
61128;BME280;47013;42.664;23.242;2022-12-18T14:43:56;95354.22;;;4.39;74.72
61128;BME280;47013;42.664;23.242;2022-12-18T14:46:36;95365.19;;;4.34;72.19